Time;durP1;ratioP1;P1;durP2;ratioP2;P2;SDS_P1;SDS_P2;PMS_P1;PMS_P2;Temp;Humidity;BMP_temperature;BMP_pressure;BME280_temperature;BME280_humidity;BME280_pressure;Samples;Min_cycle;Max_cycle;Signal;HPM_P1;HPM_P2
2021/06/24 00:01:22;;;;;;;8.70;6.68;;;;;;;;;;5042303;28;20127;-68
2021/06/24 00:03:48;;;;;;;11.90;7.07;;;;;;;;;;5044755;28;20055;-68
2021/06/24 00:06:14;;;;;;;10.00;6.55;;;;;;;;;;5043782;28;20045;-68
2021/06/24 00:08:40;;;;;;;8.85;6.28;;;;;;;;;;5040805;28;20048;-67
2021/06/24 00:11:09;;;;;;;11.52;6.65;;;;;;;;;;5043849;28;20445;-68
2021/06/24 00:13:35;;;;;;;12.32;7.03;;;;;;;;;;5042036;28;20112;-68
2021/06/24 00:16:02;;;;;;;8.27;6.00;;;;;;;;;;5043986;28;20140;-68
2021/06/24 00:18:28;;;;;;;9.45;6.85;;;;;;;;;;5044025;28;20045;-68
2021/06/24 00:20:55;;;;;;;9.85;6.82;;;;;;;;;;5045148;28;20132;-68
2021/06/24 00:23:22;;;;;;;11.82;6.78;;;;;;;;;;5049119;28;20118;-68
2021/06/24 00:25:49;;;;;;;7.88;6.35;;;;;;;;;;5046380;28;20053;-68
2021/06/24 00:28:16;;;;;;;11.13;6.65;;;;;;;;;;5044335;28;20064;-68
2021/06/24 00:30:43;;;;;;;8.70;6.75;;;;;;;;;;5044717;28;20094;-68
2021/06/24 00:33:10;;;;;;;9.10;6.57;;;;;;;;;;5043582;28;20082;-68
2021/06/24 00:35:36;;;;;;;10.43;6.35;;;;;;;;;;5045088;28;20062;-68
2021/06/24 00:38:04;;;;;;;10.27;6.63;;;;;;;;;;5045987;28;20119;-68
2021/06/24 00:40:33;;;;;;;8.85;6.53;;;;;;;;;;5046882;28;20116;-68
2021/06/24 00:43:00;;;;;;;8.85;6.68;;;;;;;;;;5041426;28;20130;-68
2021/06/24 00:45:26;;;;;;;9.30;6.50;;;;;;;;;;5043459;28;20041;-68
2021/06/24 00:47:52;;;;;;;18.15;7.60;;;;;;;;;;5038320;28;20401;-68
2021/06/24 00:50:19;;;;;;;8.63;7.20;;;;;;;;;;5039212;28;20068;-68
2021/06/24 00:52:45;;;;;;;8.68;6.85;;;;;;;;;;5038453;28;20049;-68
2021/06/24 00:55:12;;;;;;;11.38;8.15;;;;;;;;;;5044573;28;20068;-68
2021/06/24 00:57:38;;;;;;;9.65;7.72;;;;;;;;;;5039599;28;20103;-68
2021/06/24 01:00:07;;;;;;;11.90;7.60;;;;;;;;;;5032978;28;20069;-68
2021/06/24 01:02:33;;;;;;;15.00;7.40;;;;;;;;;;5043321;28;20098;-68
2021/06/24 01:04:59;;;;;;;10.10;6.90;;;;;;;;;;5040491;28;20063;-68
2021/06/24 01:07:26;;;;;;;10.40;6.50;;;;;;;;;;5036817;28;20045;-67
2021/06/24 01:09:52;;;;;;;10.35;6.95;;;;;;;;;;5039813;28;20111;-68
2021/06/24 01:12:21;;;;;;;9.10;6.68;;;;;;;;;;5039824;28;20048;-68
2021/06/24 01:14:48;;;;;;;13.27;8.50;;;;;;;;;;5042121;28;20151;-68
2021/06/24 01:17:14;;;;;;;10.05;8.13;;;;;;;;;;5040360;28;20067;-68
2021/06/24 01:19:40;;;;;;;10.43;6.95;;;;;;;;;;5037156;28;20049;-68
2021/06/24 01:22:08;;;;;;;10.98;7.90;;;;;;;;;;5047034;28;20120;-68
2021/06/24 01:24:34;;;;;;;11.20;7.75;;;;;;;;;;5044525;28;20041;-68
2021/06/24 01:27:00;;;;;;;11.73;7.55;;;;;;;;;;5038987;28;20041;-68
2021/06/24 01:29:26;;;;;;;9.27;7.93;;;;;;;;;;5040579;28;20045;-68
2021/06/24 01:31:53;;;;;;;15.70;9.00;;;;;;;;;;5038782;28;21101;-68
2021/06/24 01:34:20;;;;;;;8.73;7.07;;;;;;;;;;5042605;28;20098;-68
2021/06/24 01:36:47;;;;;;;7.95;6.30;;;;;;;;;;5041369;28;20180;-67
2021/06/24 01:39:14;;;;;;;6.65;5.43;;;;;;;;;;5040350;28;20075;-68
2021/06/24 01:41:41;;;;;;;7.05;5.70;;;;;;;;;;5039601;28;20045;-68
2021/06/24 01:44:07;;;;;;;8.85;5.90;;;;;;;;;;5044737;28;20532;-68
2021/06/24 01:46:33;;;;;;;7.75;6.43;;;;;;;;;;5040929;28;20056;-68
2021/06/24 01:49:00;;;;;;;9.32;6.75;;;;;;;;;;5040495;28;20072;-68
2021/06/24 01:51:26;;;;;;;8.27;7.40;;;;;;;;;;5040020;28;20400;-68
2021/06/24 01:53:53;;;;;;;12.63;7.72;;;;;;;;;;5038882;28;20199;-68
2021/06/24 01:56:19;;;;;;;16.23;8.20;;;;;;;;;;5038061;28;20720;-68
2021/06/24 01:58:46;;;;;;;9.93;7.45;;;;;;;;;;5043352;28;20056;-68
2021/06/24 02:01:12;;;;;;;12.07;8.82;;;;;;;;;;5044428;28;20036;-68
2021/06/24 02:03:38;;;;;;;11.70;8.50;;;;;;;;;;5046495;28;20355;-68
2021/06/24 02:06:05;;;;;;;11.48;9.68;;;;;;;;;;5043196;28;20116;-68
2021/06/24 02:08:35;;;;;;;29.73;10.63;;;;;;;;;;5045920;28;20037;-67
2021/06/24 02:11:02;;;;;;;13.50;9.05;;;;;;;;;;5042825;28;20085;-68
2021/06/24 02:13:28;;;;;;;11.52;8.98;;;;;;;;;;5040633;28;20040;-68
2021/06/24 02:15:55;;;;;;;11.63;8.75;;;;;;;;;;5041101;28;20519;-68
2021/06/24 02:18:21;;;;;;;9.23;8.32;;;;;;;;;;5042353;28;20071;-67
2021/06/24 02:20:48;;;;;;;10.38;8.55;;;;;;;;;;5046024;28;20153;-68
2021/06/24 02:23:14;;;;;;;10.93;8.80;;;;;;;;;;5044417;28;20194;-68
2021/06/24 02:25:40;;;;;;;11.98;8.95;;;;;;;;;;5045679;28;20041;-68
2021/06/24 02:28:07;;;;;;;11.27;8.43;;;;;;;;;;5045878;28;20120;-68
2021/06/24 02:30:33;;;;;;;11.18;9.27;;;;;;;;;;5040490;28;20045;-68
2021/06/24 02:32:59;;;;;;;14.48;9.75;;;;;;;;;;5045289;28;20073;-68
2021/06/24 02:35:26;;;;;;;11.25;8.82;;;;;;;;;;5041263;28;20060;-68
2021/06/24 02:37:54;;;;;;;12.32;9.30;;;;;;;;;;5044181;28;20079;-68
2021/06/24 02:40:21;;;;;;;11.25;8.18;;;;;;;;;;5043759;28;20073;-68
2021/06/24 02:42:48;;;;;;;16.38;9.95;;;;;;;;;;5043225;28;20409;-68
2021/06/24 02:45:15;;;;;;;11.43;10.18;;;;;;;;;;5042054;28;20142;-68
2021/06/24 02:47:41;;;;;;;11.43;9.85;;;;;;;;;;5043591;28;20045;-68
2021/06/24 02:50:10;;;;;;;10.48;9.38;;;;;;;;;;5043687;28;20397;-68
2021/06/24 02:52:36;;;;;;;11.55;9.43;;;;;;;;;;5045253;28;20042;-68
2021/06/24 02:55:04;;;;;;;13.27;10.45;;;;;;;;;;5044533;28;20045;-68
2021/06/24 02:57:30;;;;;;;10.38;9.38;;;;;;;;;;5041989;28;20091;-68
2021/06/24 02:59:56;;;;;;;12.75;9.75;;;;;;;;;;5046245;28;20479;-68
2021/06/24 03:02:23;;;;;;;11.93;9.52;;;;;;;;;;5043777;28;20479;-68
2021/06/24 03:04:52;;;;;;;13.43;9.48;;;;;;;;;;5039669;28;20492;-68
2021/06/24 03:07:18;;;;;;;11.20;9.18;;;;;;;;;;5044049;28;20044;-68
2021/06/24 03:09:45;;;;;;;13.43;8.57;;;;;;;;;;5043478;28;20049;-68
2021/06/24 03:12:11;;;;;;;10.13;8.68;;;;;;;;;;5042123;28;20124;-68
2021/06/24 03:14:37;;;;;;;10.90;8.75;;;;;;;;;;5042221;28;21496;-68
2021/06/24 03:17:04;;;;;;;10.77;8.25;;;;;;;;;;5041244;28;20428;-68
2021/06/24 03:19:30;;;;;;;9.85;8.85;;;;;;;;;;5046465;28;20057;-68
2021/06/24 03:21:56;;;;;;;8.75;7.78;;;;;;;;;;5046319;28;20760;-67
2021/06/24 03:24:23;;;;;;;9.63;8.35;;;;;;;;;;5039489;28;20472;-68
2021/06/24 03:26:49;;;;;;;13.73;8.07;;;;;;;;;;5042300;28;20056;-67
2021/06/24 03:29:16;;;;;;;11.93;8.82;;;;;;;;;;5047132;28;20095;-68
2021/06/24 03:31:43;;;;;;;13.02;7.90;;;;;;;;;;5030402;28;20492;-68
2021/06/24 03:34:09;;;;;;;8.50;7.60;;;;;;;;;;5041836;28;20045;-67
2021/06/24 03:36:36;;;;;;;11.55;8.20;;;;;;;;;;5043750;28;20076;-68
2021/06/24 03:39:03;;;;;;;10.15;7.63;;;;;;;;;;5046529;28;20103;-68
2021/06/24 03:41:30;;;;;;;10.40;8.45;;;;;;;;;;5047702;28;20041;-68
2021/06/24 03:43:57;;;;;;;12.45;8.55;;;;;;;;;;5043766;28;20045;-68
2021/06/24 03:46:26;;;;;;;14.73;9.07;;;;;;;;;;5045511;28;20044;-68
2021/06/24 03:48:53;;;;;;;11.45;8.65;;;;;;;;;;5043713;28;20077;-67
2021/06/24 03:51:20;;;;;;;9.65;8.23;;;;;;;;;;5042771;28;20040;-68
2021/06/24 03:53:48;;;;;;;10.18;8.80;;;;;;;;;;5041514;28;20071;-68
2021/06/24 03:56:14;;;;;;;10.50;8.82;;;;;;;;;;5043881;28;20148;-68
2021/06/24 03:58:40;;;;;;;8.45;7.55;;;;;;;;;;5043323;28;20041;-68
2021/06/24 04:01:07;;;;;;;12.32;8.95;;;;;;;;;;5047290;28;20416;-68
2021/06/24 04:03:33;;;;;;;10.85;9.50;;;;;;;;;;5044460;28;20401;-67
2021/06/24 04:06:00;;;;;;;12.35;8.88;;;;;;;;;;5049452;28;20396;-68
2021/06/24 04:08:26;;;;;;;10.30;9.20;;;;;;;;;;5049765;28;20049;-68
2021/06/24 04:10:53;;;;;;;13.65;9.55;;;;;;;;;;5045346;28;20037;-68
2021/06/24 04:13:19;;;;;;;11.13;8.35;;;;;;;;;;5039820;28;20045;-68
2021/06/24 04:15:45;;;;;;;9.63;8.57;;;;;;;;;;5040676;28;20040;-68
2021/06/24 04:18:12;;;;;;;10.20;8.73;;;;;;;;;;5041958;28;20049;-68
2021/06/24 04:20:38;;;;;;;11.80;9.20;;;;;;;;;;5041939;28;20053;-68
2021/06/24 04:23:04;;;;;;;14.23;9.10;;;;;;;;;;5041533;28;20041;-68
2021/06/24 04:25:31;;;;;;;13.18;8.85;;;;;;;;;;5040446;28;20045;-68
2021/06/24 04:28:00;;;;;;;10.43;9.25;;;;;;;;;;5045496;28;20160;-68
2021/06/24 04:30:29;;;;;;;16.73;9.38;;;;;;;;;;5040394;28;20045;-68
2021/06/24 04:32:56;;;;;;;10.43;8.52;;;;;;;;;;5042540;28;20045;-68
2021/06/24 04:35:23;;;;;;;12.13;9.15;;;;;;;;;;5041416;28;20407;-68
2021/06/24 04:37:49;;;;;;;10.98;9.35;;;;;;;;;;5040410;28;20148;-68
2021/06/24 04:40:16;;;;;;;11.43;8.65;;;;;;;;;;5039775;28;20049;-68
2021/06/24 04:42:42;;;;;;;13.90;8.50;;;;;;;;;;5039316;28;20091;-68
2021/06/24 04:45:09;;;;;;;10.23;7.10;;;;;;;;;;5043077;28;20071;-68
2021/06/24 04:47:36;;;;;;;10.23;7.03;;;;;;;;;;5044507;28;20154;-68
2021/06/24 04:50:03;;;;;;;10.63;7.47;;;;;;;;;;5040258;28;20136;-67
2021/06/24 04:52:29;;;;;;;8.27;6.13;;;;;;;;;;5044526;28;20041;-67
2021/06/24 04:54:56;;;;;;;8.18;6.15;;;;;;;;;;5039756;28;20037;-68
2021/06/24 04:57:22;;;;;;;9.55;5.47;;;;;;;;;;5038453;28;20060;-68
2021/06/24 04:59:48;;;;;;;9.52;4.55;;;;;;;;;;5037699;28;20523;-68
2021/06/24 05:02:16;;;;;;;9.13;4.28;;;;;;;;;;5046308;28;20443;-67
2021/06/24 05:04:42;;;;;;;5.18;3.28;;;;;;;;;;5040586;28;20051;-68
2021/06/24 05:07:10;;;;;;;5.57;3.15;;;;;;;;;;5047541;28;20045;-67
2021/06/24 05:09:44;;;;;;;6.78;3.30;;;;;;;;;;5041516;28;20396;-68
2021/06/24 05:12:11;;;;;;;7.85;3.20;;;;;;;;;;5039698;28;20135;-68
2021/06/24 05:14:40;;;;;;;6.75;3.33;;;;;;;;;;5040957;28;20090;-68
2021/06/24 05:17:07;;;;;;;5.15;3.42;;;;;;;;;;5047630;28;20041;-68
2021/06/24 05:19:34;;;;;;;6.93;3.70;;;;;;;;;;5042655;28;20060;-68
2021/06/24 05:22:00;;;;;;;5.72;3.45;;;;;;;;;;5048825;28;20075;-68
2021/06/24 05:24:31;;;;;;;7.40;3.95;;;;;;;;;;5044601;28;20033;-68
2021/06/24 05:27:07;;;;;;;8.60;4.10;;;;;;;;;;5048898;28;20037;-68
2021/06/24 05:29:33;;;;;;;8.95;3.88;;;;;;;;;;5046244;28;20476;-68
2021/06/24 05:32:03;;;;;;;7.70;4.05;;;;;;;;;;5038896;28;20061;-68
2021/06/24 05:34:31;;;;;;;9.43;4.35;;;;;;;;;;5043075;28;20101;-67
2021/06/24 05:37:00;;;;;;;9.88;3.88;;;;;;;;;;5043916;28;20072;-67
2021/06/24 05:39:28;;;;;;;5.43;4.00;;;;;;;;;;5051733;28;20044;-68
2021/06/24 05:41:57;;;;;;;7.32;4.57;;;;;;;;;;5036006;28;20072;-68
2021/06/24 05:44:24;;;;;;;6.60;4.35;;;;;;;;;;5053902;28;20080;-68
2021/06/24 05:46:50;;;;;;;6.85;3.40;;;;;;;;;;5052793;28;20037;-67
2021/06/24 05:49:17;;;;;;;9.55;3.45;;;;;;;;;;5044905;28;20124;-68
2021/06/24 05:51:43;;;;;;;7.65;4.25;;;;;;;;;;5044599;28;20084;-67
2021/06/24 05:54:10;;;;;;;5.43;3.65;;;;;;;;;;5052871;28;20485;-68
2021/06/24 05:56:36;;;;;;;4.03;2.60;;;;;;;;;;5053637;28;20041;-68
2021/06/24 05:59:03;;;;;;;6.07;2.65;;;;;;;;;;5053379;28;20048;-68
2021/06/24 06:01:30;;;;;;;6.82;4.13;;;;;;;;;;5040246;28;20091;-68
2021/06/24 06:03:57;;;;;;;6.82;4.07;;;;;;;;;;5035412;28;20133;-68
2021/06/24 06:06:23;;;;;;;7.57;3.80;;;;;;;;;;5050021;28;20044;-67
2021/06/24 06:08:49;;;;;;;5.57;3.50;;;;;;;;;;5052808;28;20048;-68
2021/06/24 06:11:16;;;;;;;8.27;4.10;;;;;;;;;;5053326;28;20156;-67
2021/06/24 06:13:42;;;;;;;6.70;3.65;;;;;;;;;;5052430;28;20063;-67
2021/06/24 06:16:08;;;;;;;9.02;3.28;;;;;;;;;;5053133;28;20102;-67
2021/06/24 06:18:34;;;;;;;6.32;3.30;;;;;;;;;;5052804;28;20528;-68
2021/06/24 06:21:02;;;;;;;7.45;2.70;;;;;;;;;;5052333;28;20048;-68
2021/06/24 06:23:29;;;;;;;5.90;2.78;;;;;;;;;;5052842;28;20094;-68
2021/06/24 06:25:56;;;;;;;7.63;2.97;;;;;;;;;;5053029;28;20057;-68
2021/06/24 06:28:23;;;;;;;6.88;3.13;;;;;;;;;;5051977;28;20057;-68
2021/06/24 06:30:50;;;;;;;9.02;3.17;;;;;;;;;;5052667;28;20433;-67
2021/06/24 06:33:17;;;;;;;5.55;3.10;;;;;;;;;;5052572;28;20151;-68
2021/06/24 06:35:44;;;;;;;5.13;2.03;;;;;;;;;;5051993;28;20041;-67
2021/06/24 06:38:11;;;;;;;4.30;1.90;;;;;;;;;;5052340;28;20081;-68
2021/06/24 06:40:39;;;;;;;8.82;2.45;;;;;;;;;;5052361;28;20049;-68
2021/06/24 06:43:05;;;;;;;5.80;2.30;;;;;;;;;;5051998;28;20041;-68
2021/06/24 06:45:33;;;;;;;6.32;2.30;;;;;;;;;;5052411;28;20037;-68
2021/06/24 06:48:00;;;;;;;9.07;2.42;;;;;;;;;;5052810;28;20116;-67
2021/06/24 06:50:27;;;;;;;6.72;2.80;;;;;;;;;;5051942;28;20048;-68
2021/06/24 06:52:53;;;;;;;4.40;2.30;;;;;;;;;;5052382;28;20477;-68
2021/06/24 06:55:19;;;;;;;7.15;2.30;;;;;;;;;;5052335;28;20048;-68
2021/06/24 06:57:46;;;;;;;5.63;2.35;;;;;;;;;;5051561;28;20499;-68
2021/06/24 07:00:12;;;;;;;3.92;1.95;;;;;;;;;;5052355;28;20112;-67
2021/06/24 07:02:39;;;;;;;5.82;2.08;;;;;;;;;;5051886;28;20452;-68
2021/06/24 07:05:07;;;;;;;8.38;2.22;;;;;;;;;;5051793;28;20043;-68
2021/06/24 07:07:34;;;;;;;3.63;1.73;;;;;;;;;;5052131;28;20040;-68
2021/06/24 07:10:00;;;;;;;4.88;2.58;;;;;;;;;;5049960;28;20401;-68
2021/06/24 07:12:26;;;;;;;8.65;2.30;;;;;;;;;;5052229;28;20045;-68
2021/06/24 07:14:52;;;;;;;7.82;2.75;;;;;;;;;;5051858;28;20101;-68
2021/06/24 07:17:19;;;;;;;6.15;2.22;;;;;;;;;;5051323;28;20167;-68
2021/06/24 07:19:45;;;;;;;4.82;2.60;;;;;;;;;;5051761;28;20045;-68
2021/06/24 07:22:11;;;;;;;6.35;2.40;;;;;;;;;;5052192;28;20141;-68
2021/06/24 07:24:37;;;;;;;3.72;2.20;;;;;;;;;;5049904;28;20045;-68
2021/06/24 07:27:04;;;;;;;7.82;2.80;;;;;;;;;;5051603;28;20040;-67
2021/06/24 07:29:30;;;;;;;4.25;2.10;;;;;;;;;;5051758;28;20060;-68
2021/06/24 07:31:57;;;;;;;8.55;3.42;;;;;;;;;;5050816;28;20037;-68
2021/06/24 07:34:24;;;;;;;7.22;3.60;;;;;;;;;;5051860;28;20044;-67
2021/06/24 07:36:51;;;;;;;8.07;3.25;;;;;;;;;;5051629;28;20091;-68
2021/06/24 07:39:17;;;;;;;5.57;2.90;;;;;;;;;;5051020;28;20152;-67
2021/06/24 07:41:44;;;;;;;7.10;2.63;;;;;;;;;;5051710;28;20426;-68
2021/06/24 07:44:10;;;;;;;5.63;3.38;;;;;;;;;;5051453;28;20040;-68
2021/06/24 07:46:37;;;;;;;7.13;2.88;;;;;;;;;;5050933;28;20463;-68
2021/06/24 07:49:04;;;;;;;7.55;2.58;;;;;;;;;;5051305;28;20041;-68
2021/06/24 07:51:30;;;;;;;3.75;2.22;;;;;;;;;;5051208;28;20048;-78
2021/06/24 07:53:57;;;;;;;5.30;2.00;;;;;;;;;;5062423;28;20049;-68
2021/06/24 07:56:23;;;;;;;5.05;2.17;;;;;;;;;;5050628;28;20514;-67
2021/06/24 07:58:52;;;;;;;4.28;2.60;;;;;;;;;;5050957;28;20445;-67
2021/06/24 08:01:19;;;;;;;6.80;2.90;;;;;;;;;;5050289;28;20128;-67
2021/06/24 08:03:45;;;;;;;3.95;2.55;;;;;;;;;;5051384;28;20052;-67
2021/06/24 08:06:11;;;;;;;4.85;2.72;;;;;;;;;;5050232;28;20054;-67
2021/06/24 08:08:38;;;;;;;8.88;2.40;;;;;;;;;;5049745;28;20064;-67
2021/06/24 08:11:04;;;;;;;4.13;2.40;;;;;;;;;;5051199;28;20057;-67
2021/06/24 08:13:31;;;;;;;5.75;2.90;;;;;;;;;;5050122;28;20872;-67
2021/06/24 08:15:58;;;;;;;5.70;2.95;;;;;;;;;;5051101;28;20078;-67
2021/06/24 08:18:24;;;;;;;7.97;2.95;;;;;;;;;;5050881;28;20053;-68
2021/06/24 08:20:51;;;;;;;4.30;2.97;;;;;;;;;;5050476;28;20145;-68
2021/06/24 08:23:18;;;;;;;6.70;3.10;;;;;;;;;;5050763;28;20053;-67
2021/06/24 08:25:45;;;;;;;3.95;2.30;;;;;;;;;;5050797;28;20465;-67
2021/06/24 08:28:11;;;;;;;6.38;2.80;;;;;;;;;;5049956;28;20536;-67
2021/06/24 08:30:42;;;;;;;6.43;3.00;;;;;;;;;;5050879;28;20052;-67
2021/06/24 08:33:08;;;;;;;11.27;3.60;;;;;;;;;;5052748;28;20474;-67
2021/06/24 08:35:35;;;;;;;5.45;2.55;;;;;;;;;;5055567;28;20033;-67
2021/06/24 08:38:01;;;;;;;8.10;2.63;;;;;;;;;;5062320;28;20063;-67
2021/06/24 08:40:27;;;;;;;5.85;2.70;;;;;;;;;;5036861;28;20051;-68
2021/06/24 08:42:54;;;;;;;6.55;3.47;;;;;;;;;;5068359;28;20437;-68
2021/06/24 08:45:20;;;;;;;5.93;3.10;;;;;;;;;;5068892;28;20131;-67
2021/06/24 08:47:47;;;;;;;4.55;2.85;;;;;;;;;;5062261;28;20074;-67
2021/06/24 08:50:14;;;;;;;5.93;3.20;;;;;;;;;;5069866;28;20042;-68
2021/06/24 08:52:43;;;;;;;5.60;3.10;;;;;;;;;;5060280;28;20076;-68
2021/06/24 08:55:10;;;;;;;7.05;3.45;;;;;;;;;;5052054;28;20090;-68
2021/06/24 08:57:36;;;;;;;6.55;3.15;;;;;;;;;;5069413;28;20134;-67
2021/06/24 09:00:05;;;;;;;8.93;4.00;;;;;;;;;;5070023;28;20051;-67
2021/06/24 09:02:39;;;;;;;7.15;4.05;;;;;;;;;;5069314;28;20060;-67
2021/06/24 09:05:06;;;;;;;4.93;3.13;;;;;;;;;;5056462;28;20062;-67
2021/06/24 09:07:46;;;;;;;6.80;2.92;;;;;;;;;;5069058;28;20051;-67
2021/06/24 09:10:12;;;;;;;7.55;3.25;;;;;;;;;;5069526;28;20399;-67
2021/06/24 09:12:49;;;;;;;8.18;3.33;;;;;;;;;;5070120;28;20064;-67
2021/06/24 09:15:15;;;;;;;4.20;2.60;;;;;;;;;;5038163;28;20044;-67
2021/06/24 09:17:43;;;;;;;5.20;2.67;;;;;;;;;;5069207;28;20395;-67
2021/06/24 09:20:18;;;;;;;5.57;3.10;;;;;;;;;;5069731;28;20044;-67
2021/06/24 09:23:04;;;;;;;6.63;3.10;;;;;;;;;;5069972;28;20048;-67
2021/06/24 09:25:30;;;;;;;8.13;2.83;;;;;;;;;;5055355;28;20487;-67
2021/06/24 09:27:56;;;;;;;5.45;2.95;;;;;;;;;;5069999;28;20045;-67
2021/06/24 09:30:30;;;;;;;6.95;3.47;;;;;;;;;;5069624;28;20041;-67
2021/06/24 09:32:56;;;;;;;6.20;3.25;;;;;;;;;;5069373;28;20064;-67
2021/06/24 09:35:24;;;;;;;5.72;3.50;;;;;;;;;;5069656;28;20557;-67
2021/06/24 09:38:00;;;;;;;5.80;3.40;;;;;;;;;;5069050;28;20079;-67
2021/06/24 09:40:39;;;;;;;5.63;3.22;;;;;;;;;;5069660;28;20040;-68
2021/06/24 09:43:06;;;;;;;6.47;3.13;;;;;;;;;;5069671;28;20452;-67
2021/06/24 09:45:33;;;;;;;4.15;2.90;;;;;;;;;;5069098;28;20068;-67
2021/06/24 09:48:11;;;;;;;6.88;3.00;;;;;;;;;;5069890;28;20048;-67
2021/06/24 09:50:39;;;;;;;6.75;2.85;;;;;;;;;;5069635;28;20106;-67
2021/06/24 09:53:07;;;;;;;4.25;3.13;;;;;;;;;;5051201;28;20064;-67
2021/06/24 09:55:33;;;;;;;5.88;3.00;;;;;;;;;;5069466;28;20072;-67
2021/06/24 09:58:13;;;;;;;8.07;3.25;;;;;;;;;;5069833;28;20139;-68
2021/06/24 10:00:48;;;;;;;7.38;3.17;;;;;;;;;;5069033;28;20101;-67
2021/06/24 10:03:15;;;;;;;6.05;2.95;;;;;;;;;;5069511;28;20067;-68
2021/06/24 10:05:42;;;;;;;6.22;3.20;;;;;;;;;;5051772;28;20076;-67
2021/06/24 10:08:08;;;;;;;4.90;2.90;;;;;;;;;;5050952;28;20059;-68
2021/06/24 10:10:35;;;;;;;6.40;2.80;;;;;;;;;;5057164;28;20115;-68
2021/06/24 10:13:01;;;;;;;5.80;3.38;;;;;;;;;;5052471;28;20047;-68
2021/06/24 10:15:29;;;;;;;7.30;3.03;;;;;;;;;;5054502;28;20033;-68
2021/06/24 10:17:56;;;;;;;4.72;2.83;;;;;;;;;;5051367;28;20041;-68
2021/06/24 10:20:23;;;;;;;6.20;3.03;;;;;;;;;;5037708;28;20045;-68
2021/06/24 10:22:57;;;;;;;8.32;3.38;;;;;;;;;;5053217;28;20072;-68
2021/06/24 10:25:24;;;;;;;8.23;3.67;;;;;;;;;;5036965;28;20040;-67
2021/06/24 10:27:52;;;;;;;5.22;2.90;;;;;;;;;;5065239;28;20033;-68
2021/06/24 10:30:21;;;;;;;6.25;2.75;;;;;;;;;;5072976;28;20091;-67
2021/06/24 10:33:00;;;;;;;4.97;2.70;;;;;;;;;;5072913;28;20052;-67
2021/06/24 10:35:33;;;;;;;5.72;2.78;;;;;;;;;;5072216;28;20045;-68
2021/06/24 10:38:00;;;;;;;6.55;2.75;;;;;;;;;;5072520;28;20048;-68
2021/06/24 10:40:27;;;;;;;6.38;3.10;;;;;;;;;;5072530;28;20040;-68
2021/06/24 10:42:54;;;;;;;8.70;3.67;;;;;;;;;;5063855;28;20076;-67
2021/06/24 10:45:22;;;;;;;5.65;3.03;;;;;;;;;;5062679;28;20045;-67
2021/06/24 10:47:48;;;;;;;5.57;2.78;;;;;;;;;;5058400;28;20060;-68
2021/06/24 10:50:30;;;;;;;7.05;2.95;;;;;;;;;;5053873;28;20045;-67
2021/06/24 10:52:59;;;;;;;6.35;3.28;;;;;;;;;;5066826;28;20103;-67
2021/06/24 10:55:32;;;;;;;5.20;3.10;;;;;;;;;;5071761;28;20058;-67
2021/06/24 10:57:59;;;;;;;6.50;3.42;;;;;;;;;;5072351;28;20047;-67
2021/06/24 11:00:32;;;;;;;7.30;3.83;;;;;;;;;;5072528;28;20075;-68
2021/06/24 11:03:00;;;;;;;7.93;4.25;;;;;;;;;;5068719;28;20122;-67
2021/06/24 11:05:34;;;;;;;8.88;3.97;;;;;;;;;;5072486;28;20089;-74
2021/06/24 11:08:07;;;;;;;7.82;3.80;;;;;;;;;;5072274;28;20052;-68
2021/06/24 11:10:34;;;;;;;6.57;3.13;;;;;;;;;;5071553;28;20120;-68
2021/06/24 11:13:01;;;;;;;5.88;3.10;;;;;;;;;;5072277;28;20049;-68
2021/06/24 11:15:44;;;;;;;6.97;3.83;;;;;;;;;;5072502;28;20044;-68
2021/06/24 11:18:10;;;;;;;8.10;4.55;;;;;;;;;;5071421;28;20079;-68
2021/06/24 11:20:42;;;;;;;7.82;3.30;;;;;;;;;;5072095;28;20500;-68
2021/06/24 11:23:29;;;;;;;5.93;3.60;;;;;;;;;;5070999;28;20063;-68
2021/06/24 11:26:07;;;;;;;4.70;3.90;;;;;;;;;;5071919;28;20059;-68
2021/06/24 11:28:53;;;;;;;7.30;3.60;;;;;;;;;;5071792;28;20049;-68
2021/06/24 11:31:22;;;;;;;9.95;3.55;;;;;;;;;;5069995;28;20064;-68
2021/06/24 11:34:03;;;;;;;5.15;3.03;;;;;;;;;;5071663;28;20111;-68
2021/06/24 11:36:29;;;;;;;4.63;3.25;;;;;;;;;;5072023;28;20078;-68
2021/06/24 11:38:56;;;;;;;6.75;3.65;;;;;;;;;;5070534;28;20044;-68
2021/06/24 11:41:23;;;;;;;8.18;4.03;;;;;;;;;;5071853;28;20052;-68
2021/06/24 11:43:57;;;;;;;5.57;3.30;;;;;;;;;;5053508;28;20060;-68
2021/06/24 11:46:25;;;;;;;7.03;3.47;;;;;;;;;;5071129;28;20176;-68
2021/06/24 11:49:18;;;;;;;6.28;3.40;;;;;;;;;;5071691;28;20051;-68
2021/06/24 12:00:27;;;;;;;6.75;3.58;;;;;;;;;;5070648;28;20147;-68
2021/06/24 12:00:28;;;;;;;9.18;3.28;;;;;;;;;;5071734;28;20051;-68
2021/06/24 12:03:07;;;;;;;6.50;3.20;;;;;;;;;;5071198;28;20049;-68
2021/06/24 12:05:33;;;;;;;7.28;3.53;;;;;;;;;;5070331;28;20056;-68
2021/06/24 12:08:00;;;;;;;5.57;3.20;;;;;;;;;;5071147;28;20063;-68
2021/06/24 12:10:26;;;;;;;6.55;3.33;;;;;;;;;;5071138;28;20097;-68
2021/06/24 12:12:52;;;;;;;6.95;3.17;;;;;;;;;;5070036;28;20040;-68
2021/06/24 12:15:19;;;;;;;9.25;3.03;;;;;;;;;;5071125;28;20136;-68
2021/06/24 12:17:45;;;;;;;9.63;3.10;;;;;;;;;;5070867;28;20064;-68
2021/06/24 12:20:18;;;;;;;7.20;3.30;;;;;;;;;;5070187;28;20049;-68
2021/06/24 12:22:48;;;;;;;4.30;2.55;;;;;;;;;;5070936;28;20056;-68
2021/06/24 12:25:20;;;;;;;5.68;2.67;;;;;;;;;;5070561;28;20040;-68
2021/06/24 12:27:48;;;;;;;7.80;3.28;;;;;;;;;;5070013;28;20079;-68
2021/06/24 12:30:18;;;;;;;6.03;2.95;;;;;;;;;;5070797;28;20033;-68
2021/06/24 12:32:47;;;;;;;6.18;3.00;;;;;;;;;;5070762;28;20044;-68
2021/06/24 12:35:19;;;;;;;4.93;2.63;;;;;;;;;;5069764;28;20166;-68
2021/06/24 12:37:49;;;;;;;6.82;3.22;;;;;;;;;;5047092;28;20548;-68
2021/06/24 12:40:16;;;;;;;7.22;3.33;;;;;;;;;;5032514;28;20359;-68
2021/06/24 12:42:45;;;;;;;4.43;2.55;;;;;;;;;;5049818;28;20095;-68
2021/06/24 12:45:12;;;;;;;4.82;2.63;;;;;;;;;;5050500;28;20530;-68
2021/06/24 12:47:42;;;;;;;5.07;2.63;;;;;;;;;;5049656;28;20056;-69
2021/06/24 12:50:14;;;;;;;4.43;2.50;;;;;;;;;;5050293;28;20087;-69
2021/06/24 12:52:45;;;;;;;5.78;2.45;;;;;;;;;;5048865;28;20052;-69
2021/06/24 12:55:31;;;;;;;6.00;2.97;;;;;;;;;;5047174;28;20119;-68
2021/06/24 12:57:59;;;;;;;3.80;2.33;;;;;;;;;;5048170;28;20049;-69
2021/06/24 13:00:26;;;;;;;5.90;2.42;;;;;;;;;;5031130;28;20056;-69
2021/06/24 13:02:52;;;;;;;3.42;1.80;;;;;;;;;;5045166;28;20293;-69
2021/06/24 13:05:23;;;;;;;6.05;2.15;;;;;;;;;;5046648;28;20048;-69
2021/06/24 13:07:56;;;;;;;5.53;2.80;;;;;;;;;;5049122;28;20060;-69
2021/06/24 13:10:22;;;;;;;6.97;2.30;;;;;;;;;;5049243;28;20060;-69
2021/06/24 13:12:49;;;;;;;4.13;2.17;;;;;;;;;;5053288;28;20298;-69
2021/06/24 13:15:35;;;;;;;4.45;2.13;;;;;;;;;;5049640;28;20090;-69
2021/06/24 13:18:01;;;;;;;4.82;2.25;;;;;;;;;;5048715;28;20104;-68
2021/06/24 13:20:28;;;;;;;4.20;2.10;;;;;;;;;;5049618;28;20060;-69
2021/06/24 13:23:08;;;;;;;6.15;1.90;;;;;;;;;;5049122;28;20041;-69
2021/06/24 13:25:41;;;;;;;3.85;1.83;;;;;;;;;;5026131;28;20064;-69
2021/06/24 13:28:07;;;;;;;5.05;2.33;;;;;;;;;;5043020;28;20057;-69
2021/06/24 13:30:40;;;;;;;5.28;2.00;;;;;;;;;;5042617;28;20144;-69
2021/06/24 13:33:07;;;;;;;4.75;2.17;;;;;;;;;;5038219;28;20123;-69
2021/06/24 13:35:33;;;;;;;4.40;2.15;;;;;;;;;;5046028;28;20068;-69
2021/06/24 13:38:01;;;;;;;4.90;1.90;;;;;;;;;;5050399;28;20049;-69
2021/06/24 13:40:36;;;;;;;4.60;2.10;;;;;;;;;;5052406;28;20056;-68
2021/06/24 13:43:04;;;;;;;6.03;2.15;;;;;;;;;;5062159;28;20052;-70
2021/06/24 13:45:32;;;;;;;6.45;2.47;;;;;;;;;;5042560;28;20079;-70
2021/06/24 13:48:00;;;;;;;3.42;2.17;;;;;;;;;;5056777;28;20041;-70
2021/06/24 13:50:26;;;;;;;4.47;2.35;;;;;;;;;;5058450;28;20049;-70
2021/06/24 13:52:52;;;;;;;5.63;2.00;;;;;;;;;;5061307;28;20044;-70
2021/06/24 13:55:19;;;;;;;4.75;2.42;;;;;;;;;;5063190;28;20040;-70
2021/06/24 13:57:45;;;;;;;3.78;2.38;;;;;;;;;;5057913;28;20041;-70
2021/06/24 14:00:11;;;;;;;5.03;2.30;;;;;;;;;;5058795;28;20044;-71
2021/06/24 14:02:38;;;;;;;4.55;2.20;;;;;;;;;;5068568;28;20048;-70
2021/06/24 14:05:05;;;;;;;3.55;2.17;;;;;;;;;;5068713;28;20116;-70
2021/06/24 14:07:31;;;;;;;4.85;2.10;;;;;;;;;;5071235;28;20040;-71
2021/06/24 14:09:57;;;;;;;9.07;3.05;;;;;;;;;;5070599;28;20045;-70
2021/06/24 14:12:24;;;;;;;6.50;2.95;;;;;;;;;;5064520;28;20483;-71
2021/06/24 14:14:50;;;;;;;7.40;2.72;;;;;;;;;;5069847;28;20145;-70
2021/06/24 14:17:16;;;;;;;4.32;1.90;;;;;;;;;;5061337;28;20041;-70
2021/06/24 14:19:43;;;;;;;4.65;2.50;;;;;;;;;;5057261;28;20045;-81
2021/06/24 14:22:10;;;;;;;4.97;2.60;;;;;;;;;;5052580;28;20393;-76
2021/06/24 14:24:36;;;;;;;5.63;2.60;;;;;;;;;;5064855;28;20041;-75
2021/06/24 14:27:04;;;;;;;5.85;2.45;;;;;;;;;;5066300;28;20040;-75
2021/06/24 14:29:32;;;;;;;8.63;2.60;;;;;;;;;;5067571;28;20036;-75
2021/06/24 14:31:58;;;;;;;5.38;2.33;;;;;;;;;;5070416;28;20048;-75
2021/06/24 14:34:25;;;;;;;6.43;2.70;;;;;;;;;;5060958;28;20396;-75
2021/06/24 14:36:51;;;;;;;6.00;2.90;;;;;;;;;;5071471;28;20506;-75
2021/06/24 14:39:18;;;;;;;6.00;2.67;;;;;;;;;;5066547;28;20051;-75
2021/06/24 14:41:44;;;;;;;5.43;2.70;;;;;;;;;;5065101;28;20403;-75
2021/06/24 14:44:10;;;;;;;6.55;2.63;;;;;;;;;;5068215;28;20421;-75
2021/06/24 14:46:37;;;;;;;4.65;2.60;;;;;;;;;;5057263;28;20037;-75
2021/06/24 14:49:04;;;;;;;5.10;2.88;;;;;;;;;;5068997;28;20048;-75
2021/06/24 14:51:31;;;;;;;6.10;2.97;;;;;;;;;;5071188;28;20441;-75